Terminal Aerodrome Forecast
Issued by NWS Binghamton, NY

Home | Current Version | Previous Version | Text Only | Print | Product List | Glossary On
Versions: 1 2 3 4 5 6 7 8 9 10 11 12 13 14 15 16 17 18 19
000
FTUS41 KBGM 012320
TAFAVP
TAF
KAVP 012320Z 0200/0224 VRB03KT P6SM BKN100
     FM020800 VRB03KT 5SM BR BKN035
     FM021400 31005KT P6SM SCT035=

USA.gov is the U.S. government's official web portal to all federal, state and local government web resources and services.